sensor_id;sensor_type;location;lat;lon;timestamp;temperature;humidity
63317;DHT22;49822;41.468;13.560;2023-02-15T00:00:09;4.70;74.20
63317;DHT22;49822;41.468;13.560;2023-02-15T00:02:40;4.60;75.50
63317;DHT22;49822;41.468;13.560;2023-02-15T00:05:08;4.70;75.70
63317;DHT22;49822;41.468;13.560;2023-02-15T00:07:37;4.70;74.50
63317;DHT22;49822;41.468;13.560;2023-02-15T00:10:05;4.20;76.20
63317;DHT22;49822;41.468;13.560;2023-02-15T00:12:34;3.90;78.40
63317;DHT22;49822;41.468;13.560;2023-02-15T00:15:01;4.00;79.50
63317;DHT22;49822;41.468;13.560;2023-02-15T00:17:29;4.30;79.10
63317;DHT22;49822;41.468;13.560;2023-02-15T00:19:57;4.50;78.00
63317;DHT22;49822;41.468;13.560;2023-02-15T00:22:25;4.50;77.50
63317;DHT22;49822;41.468;13.560;2023-02-15T00:24:53;4.50;74.90
63317;DHT22;49822;41.468;13.560;2023-02-15T00:27:21;4.70;75.30
63317;DHT22;49822;41.468;13.560;2023-02-15T00:29:48;4.70;75.10
63317;DHT22;49822;41.468;13.560;2023-02-15T00:32:16;4.40;73.30
63317;DHT22;49822;41.468;13.560;2023-02-15T00:34:46;4.10;75.30
63317;DHT22;49822;41.468;13.560;2023-02-15T00:37:14;4.20;76.80
63317;DHT22;49822;41.468;13.560;2023-02-15T00:39:41;4.20;77.10
63317;DHT22;49822;41.468;13.560;2023-02-15T00:42:09;4.20;76.00
63317;DHT22;49822;41.468;13.560;2023-02-15T00:44:37;3.90;76.90
63317;DHT22;49822;41.468;13.560;2023-02-15T00:47:04;3.60;77.00
63317;DHT22;49822;41.468;13.560;2023-02-15T00:49:33;3.70;79.00
63317;DHT22;49822;41.468;13.560;2023-02-15T00:52:00;4.00;78.70
63317;DHT22;49822;41.468;13.560;2023-02-15T00:54:27;4.20;77.10
63317;DHT22;49822;41.468;13.560;2023-02-15T00:56:55;4.20;75.80
63317;DHT22;49822;41.468;13.560;2023-02-15T00:59:23;4.20;75.70
63317;DHT22;49822;41.468;13.560;2023-02-15T01:01:51;4.30;75.90
63317;DHT22;49822;41.468;13.560;2023-02-15T01:04:19;4.40;75.30
63317;DHT22;49822;41.468;13.560;2023-02-15T01:06:46;4.50;73.90
63317;DHT22;49822;41.468;13.560;2023-02-15T01:09:14;4.60;73.30
63317;DHT22;49822;41.468;13.560;2023-02-15T01:11:42;4.00;73.10
63317;DHT22;49822;41.468;13.560;2023-02-15T01:14:10;3.40;76.40
63317;DHT22;49822;41.468;13.560;2023-02-15T01:16:38;3.30;78.50
63317;DHT22;49822;41.468;13.560;2023-02-15T01:19:06;3.50;79.40
63317;DHT22;49822;41.468;13.560;2023-02-15T01:21:33;3.90;79.30
63317;DHT22;49822;41.468;13.560;2023-02-15T01:24:02;4.00;77.20
63317;DHT22;49822;41.468;13.560;2023-02-15T01:26:30;4.10;76.00
63317;DHT22;49822;41.468;13.560;2023-02-15T01:28:58;4.20;75.00
63317;DHT22;49822;41.468;13.560;2023-02-15T01:31:26;4.10;73.70
63317;DHT22;49822;41.468;13.560;2023-02-15T01:33:53;3.30;75.30
63317;DHT22;49822;41.468;13.560;2023-02-15T01:36:21;3.30;78.00
63317;DHT22;49822;41.468;13.560;2023-02-15T01:38:51;3.50;78.80
63317;DHT22;49822;41.468;13.560;2023-02-15T01:41:18;3.70;78.10
63317;DHT22;49822;41.468;13.560;2023-02-15T01:43:58;3.90;77.00
63317;DHT22;49822;41.468;13.560;2023-02-15T01:46:40;3.50;76.30
63317;DHT22;49822;41.468;13.560;2023-02-15T01:49:16;3.20;77.90
63317;DHT22;49822;41.468;13.560;2023-02-15T01:51:48;3.10;79.90
63317;DHT22;49822;41.468;13.560;2023-02-15T01:54:32;3.30;80.00
63317;DHT22;49822;41.468;13.560;2023-02-15T01:57:07;3.60;78.90
63317;DHT22;49822;41.468;13.560;2023-02-15T01:59:38;3.80;78.40
63317;DHT22;49822;41.468;13.560;2023-02-15T02:02:09;3.80;77.60
63317;DHT22;49822;41.468;13.560;2023-02-15T02:04:51;3.50;75.70
63317;DHT22;49822;41.468;13.560;2023-02-15T02:07:22;2.90;78.90
63317;DHT22;49822;41.468;13.560;2023-02-15T02:09:51;3.00;80.80
63317;DHT22;49822;41.468;13.560;2023-02-15T02:12:23;3.30;80.70
63317;DHT22;49822;41.468;13.560;2023-02-15T02:14:53;3.50;79.90
63317;DHT22;49822;41.468;13.560;2023-02-15T02:36:00;3.50;77.30
63317;DHT22;49822;41.468;13.560;2023-02-15T02:39:06;3.60;76.20
63317;DHT22;49822;41.468;13.560;2023-02-15T02:41:43;3.70;75.50
63317;DHT22;49822;41.468;13.560;2023-02-15T02:44:56;3.70;76.60
63317;DHT22;49822;41.468;13.560;2023-02-15T02:47:44;3.70;76.00
63317;DHT22;49822;41.468;13.560;2023-02-15T02:50:20;2.50;78.80
63317;DHT22;49822;41.468;13.560;2023-02-15T02:52:50;2.40;83.10
63317;DHT22;49822;41.468;13.560;2023-02-15T02:55:35;2.70;84.00
63317;DHT22;49822;41.468;13.560;2023-02-15T02:58:11;3.10;83.30
63317;DHT22;49822;41.468;13.560;2023-02-15T03:01:03;3.10;79.70
63317;DHT22;49822;41.468;13.560;2023-02-15T03:03:41;3.00;78.30
63317;DHT22;49822;41.468;13.560;2023-02-15T03:06:22;2.70;80.30
63317;DHT22;49822;41.468;13.560;2023-02-15T03:08:58;2.50;81.50
63317;DHT22;49822;41.468;13.560;2023-02-15T03:11:29;2.50;83.20
63317;DHT22;49822;41.468;13.560;2023-02-15T03:13:58;2.80;83.60
63317;DHT22;49822;41.468;13.560;2023-02-15T03:16:26;3.10;82.90
63317;DHT22;49822;41.468;13.560;2023-02-15T03:19:03;3.20;81.00
63317;DHT22;49822;41.468;13.560;2023-02-15T03:21:50;2.50;80.40
63317;DHT22;49822;41.468;13.560;2023-02-15T03:24:44;2.60;82.30
63317;DHT22;49822;41.468;13.560;2023-02-15T03:27:21;2.90;82.90
63317;DHT22;49822;41.468;13.560;2023-02-15T03:29:52;3.20;81.70
63317;DHT22;49822;41.468;13.560;2023-02-15T03:32:21;3.30;80.40
63317;DHT22;49822;41.468;13.560;2023-02-15T03:34:50;3.10;79.20
63317;DHT22;49822;41.468;13.560;2023-02-15T03:39:55;3.10;81.00
63317;DHT22;49822;41.468;13.560;2023-02-15T03:42:45;3.10;79.00
63317;DHT22;49822;41.468;13.560;2023-02-15T03:45:20;2.70;79.60
63317;DHT22;49822;41.468;13.560;2023-02-15T03:47:52;2.70;81.60
63317;DHT22;49822;41.468;13.560;2023-02-15T03:50:26;3.00;82.10
63317;DHT22;49822;41.468;13.560;2023-02-15T03:53:16;3.10;81.70
63317;DHT22;49822;41.468;13.560;2023-02-15T03:55:49;3.30;79.60
63317;DHT22;49822;41.468;13.560;2023-02-15T03:58:17;2.50;76.70
63317;DHT22;49822;41.468;13.560;2023-02-15T04:01:09;2.40;79.80
63317;DHT22;49822;41.468;13.560;2023-02-15T04:04:03;2.70;80.90
63317;DHT22;49822;41.468;13.560;2023-02-15T04:06:34;2.80;80.20
63317;DHT22;49822;41.468;13.560;2023-02-15T04:09:03;2.80;77.80
63317;DHT22;49822;41.468;13.560;2023-02-15T04:11:50;2.70;79.00
63317;DHT22;49822;41.468;13.560;2023-02-15T04:14:17;2.70;78.70
63317;DHT22;49822;41.468;13.560;2023-02-15T04:17:06;2.80;78.30
63317;DHT22;49822;41.468;13.560;2023-02-15T04:19:34;3.00;76.90
63317;DHT22;49822;41.468;13.560;2023-02-15T04:22:21;3.00;75.10
63317;DHT22;49822;41.468;13.560;2023-02-15T04:25:08;2.70;74.70
63317;DHT22;49822;41.468;13.560;2023-02-15T04:27:48;2.60;75.90
63317;DHT22;49822;41.468;13.560;2023-02-15T04:30:19;2.70;77.10
63317;DHT22;49822;41.468;13.560;2023-02-15T04:32:48;2.70;75.80
63317;DHT22;49822;41.468;13.560;2023-02-15T04:35:17;2.40;76.60
63317;DHT22;49822;41.468;13.560;2023-02-15T04:37:45;2.40;77.40
63317;DHT22;49822;41.468;13.560;2023-02-15T04:40:14;2.60;77.30
63317;DHT22;49822;41.468;13.560;2023-02-15T04:42:56;2.80;76.30
63317;DHT22;49822;41.468;13.560;2023-02-15T04:45:56;2.90;74.60
63317;DHT22;49822;41.468;13.560;2023-02-15T04:48:26;1.90;74.50
63317;DHT22;49822;41.468;13.560;2023-02-15T04:50:53;1.40;79.80
63317;DHT22;49822;41.468;13.560;2023-02-15T04:53:21;1.60;81.60
63317;DHT22;49822;41.468;13.560;2023-02-15T04:55:48;2.00;81.60
63317;DHT22;49822;41.468;13.560;2023-02-15T04:58:17;2.20;79.70
63317;DHT22;49822;41.468;13.560;2023-02-15T05:00:45;1.90;76.60
63317;DHT22;49822;41.468;13.560;2023-02-15T05:03:14;1.90;78.50
63317;DHT22;49822;41.468;13.560;2023-02-15T05:05:41;2.10;78.80
63317;DHT22;49822;41.468;13.560;2023-02-15T05:08:10;2.20;79.50
63317;DHT22;49822;41.468;13.560;2023-02-15T05:10:37;2.50;79.00
63317;DHT22;49822;41.468;13.560;2023-02-15T05:13:05;2.50;76.50
63317;DHT22;49822;41.468;13.560;2023-02-15T05:15:34;2.20;76.70
63317;DHT22;49822;41.468;13.560;2023-02-15T05:18:04;2.20;76.70
63317;DHT22;49822;41.468;13.560;2023-02-15T05:20:34;2.10;77.50
63317;DHT22;49822;41.468;13.560;2023-02-15T05:23:01;1.90;79.10
63317;DHT22;49822;41.468;13.560;2023-02-15T05:25:28;1.80;79.60
63317;DHT22;49822;41.468;13.560;2023-02-15T05:28:15;1.90;79.10
63317;DHT22;49822;41.468;13.560;2023-02-15T05:31:02;2.10;78.50
63317;DHT22;49822;41.468;13.560;2023-02-15T05:33:31;2.00;77.50
63317;DHT22;49822;41.468;13.560;2023-02-15T05:35:59;2.00;78.40
63317;DHT22;49822;41.468;13.560;2023-02-15T05:38:29;2.10;77.20
63317;DHT22;49822;41.468;13.560;2023-02-15T05:40:58;1.90;76.90
63317;DHT22;49822;41.468;13.560;2023-02-15T05:43:26;2.10;78.00
63317;DHT22;49822;41.468;13.560;2023-02-15T05:45:55;2.30;77.20
63317;DHT22;49822;41.468;13.560;2023-02-15T05:48:24;2.00;75.50
63317;DHT22;49822;41.468;13.560;2023-02-15T05:51:10;1.40;78.10
63317;DHT22;49822;41.468;13.560;2023-02-15T05:53:40;1.30;80.70
63317;DHT22;49822;41.468;13.560;2023-02-15T05:56:09;1.50;81.90
63317;DHT22;49822;41.468;13.560;2023-02-15T05:58:39;1.70;82.80
63317;DHT22;49822;41.468;13.560;2023-02-15T06:01:12;2.00;82.30
63317;DHT22;49822;41.468;13.560;2023-02-15T06:03:40;1.90;78.80
63317;DHT22;49822;41.468;13.560;2023-02-15T06:06:08;1.70;79.30
63317;DHT22;49822;41.468;13.560;2023-02-15T06:08:38;1.80;80.40
63317;DHT22;49822;41.468;13.560;2023-02-15T06:11:06;2.00;80.40
63317;DHT22;49822;41.468;13.560;2023-02-15T06:13:36;2.30;79.70
63317;DHT22;49822;41.468;13.560;2023-02-15T06:16:06;2.50;78.40
63317;DHT22;49822;41.468;13.560;2023-02-15T06:18:34;2.60;76.90
63317;DHT22;49822;41.468;13.560;2023-02-15T06:21:02;2.50;76.10
63317;DHT22;49822;41.468;13.560;2023-02-15T06:23:29;2.40;76.80
63317;DHT22;49822;41.468;13.560;2023-02-15T06:25:58;2.40;78.10
63317;DHT22;49822;41.468;13.560;2023-02-15T06:28:26;2.50;77.70
63317;DHT22;49822;41.468;13.560;2023-02-15T06:30:54;2.60;77.70
63317;DHT22;49822;41.468;13.560;2023-02-15T06:33:22;2.80;77.10
63317;DHT22;49822;41.468;13.560;2023-02-15T06:35:50;2.60;76.90
63317;DHT22;49822;41.468;13.560;2023-02-15T06:38:18;2.70;77.70
63317;DHT22;49822;41.468;13.560;2023-02-15T06:40:46;2.40;77.20
63317;DHT22;49822;41.468;13.560;2023-02-15T06:43:13;2.40;79.80
63317;DHT22;49822;41.468;13.560;2023-02-15T06:45:41;2.60;79.50
63317;DHT22;49822;41.468;13.560;2023-02-15T06:48:09;3.00;78.80
63317;DHT22;49822;41.468;13.560;2023-02-15T06:50:38;3.10;76.70
63317;DHT22;49822;41.468;13.560;2023-02-15T06:53:05;3.10;75.60
63317;DHT22;49822;41.468;13.560;2023-02-15T06:55:33;3.10;75.90
63317;DHT22;49822;41.468;13.560;2023-02-15T06:58:01;3.00;76.90
63317;DHT22;49822;41.468;13.560;2023-02-15T07:00:30;3.10;77.10
63317;DHT22;49822;41.468;13.560;2023-02-15T07:03:02;3.30;76.20
63317;DHT22;49822;41.468;13.560;2023-02-15T07:05:36;3.50;75.90
63317;DHT22;49822;41.468;13.560;2023-02-15T07:08:03;3.70;75.10
63317;DHT22;49822;41.468;13.560;2023-02-15T07:10:31;3.90;74.40
63317;DHT22;49822;41.468;13.560;2023-02-15T07:12:58;4.10;73.70
63317;DHT22;49822;41.468;13.560;2023-02-15T07:15:27;4.20;72.70
63317;DHT22;49822;41.468;13.560;2023-02-15T07:17:58;4.20;72.20
63317;DHT22;49822;41.468;13.560;2023-02-15T07:20:26;4.10;72.70
63317;DHT22;49822;41.468;13.560;2023-02-15T07:22:53;4.30;73.10
63317;DHT22;49822;41.468;13.560;2023-02-15T07:25:21;4.50;72.90
63317;DHT22;49822;41.468;13.560;2023-02-15T07:27:58;4.70;72.40
63317;DHT22;49822;41.468;13.560;2023-02-15T07:30:31;4.90;72.20
63317;DHT22;49822;41.468;13.560;2023-02-15T07:33:03;4.90;73.50
63317;DHT22;49822;41.468;13.560;2023-02-15T07:35:51;4.50;75.00
63317;DHT22;49822;41.468;13.560;2023-02-15T07:38:19;4.40;76.50
63317;DHT22;49822;41.468;13.560;2023-02-15T07:40:48;4.50;77.50
63317;DHT22;49822;41.468;13.560;2023-02-15T07:43:16;4.70;77.10
63317;DHT22;49822;41.468;13.560;2023-02-15T07:45:44;4.90;76.00
63317;DHT22;49822;41.468;13.560;2023-02-15T07:48:12;5.10;75.20
63317;DHT22;49822;41.468;13.560;2023-02-15T07:50:40;5.30;73.80
63317;DHT22;49822;41.468;13.560;2023-02-15T07:53:08;5.10;73.30
63317;DHT22;49822;41.468;13.560;2023-02-15T07:55:37;5.00;72.90
63317;DHT22;49822;41.468;13.560;2023-02-15T07:58:04;5.00;72.30
63317;DHT22;49822;41.468;13.560;2023-02-15T08:00:34;5.00;72.10
63317;DHT22;49822;41.468;13.560;2023-02-15T08:03:24;5.00;72.70
63317;DHT22;49822;41.468;13.560;2023-02-15T08:05:58;5.10;73.10
63317;DHT22;49822;41.468;13.560;2023-02-15T08:08:28;5.20;73.20
63317;DHT22;49822;41.468;13.560;2023-02-15T08:16:38;5.30;71.80
63317;DHT22;49822;41.468;13.560;2023-02-15T08:19:20;5.40;71.80
63317;DHT22;49822;41.468;13.560;2023-02-15T08:22:02;5.60;70.80
63317;DHT22;49822;41.468;13.560;2023-02-15T08:24:34;5.80;70.60
63317;DHT22;49822;41.468;13.560;2023-02-15T08:27:03;6.00;70.30
63317;DHT22;49822;41.468;13.560;2023-02-15T08:29:33;6.00;69.60
63317;DHT22;49822;41.468;13.560;2023-02-15T08:32:19;6.00;70.40
63317;DHT22;49822;41.468;13.560;2023-02-15T08:34:47;6.20;70.00
63317;DHT22;49822;41.468;13.560;2023-02-15T08:37:15;6.40;70.30
63317;DHT22;49822;41.468;13.560;2023-02-15T08:39:43;6.60;69.40
63317;DHT22;49822;41.468;13.560;2023-02-15T08:42:10;6.60;69.50
63317;DHT22;49822;41.468;13.560;2023-02-15T08:44:38;6.60;68.80
63317;DHT22;49822;41.468;13.560;2023-02-15T08:47:05;6.70;68.50
63317;DHT22;49822;41.468;13.560;2023-02-15T08:49:33;6.80;68.50
63317;DHT22;49822;41.468;13.560;2023-02-15T08:52:00;7.00;68.00
63317;DHT22;49822;41.468;13.560;2023-02-15T08:54:28;7.20;67.90
63317;DHT22;49822;41.468;13.560;2023-02-15T08:56:56;7.40;67.70
63317;DHT22;49822;41.468;13.560;2023-02-15T08:59:24;7.50;66.70
63317;DHT22;49822;41.468;13.560;2023-02-15T09:01:54;7.80;66.30
63317;DHT22;49822;41.468;13.560;2023-02-15T09:04:22;8.00;66.20
63317;DHT22;49822;41.468;13.560;2023-02-15T09:06:51;8.20;65.50
63317;DHT22;49822;41.468;13.560;2023-02-15T09:09:19;8.30;64.40
63317;DHT22;49822;41.468;13.560;2023-02-15T09:11:49;8.40;64.70
63317;DHT22;49822;41.468;13.560;2023-02-15T09:14:25;8.40;65.20
63317;DHT22;49822;41.468;13.560;2023-02-15T09:16:55;8.50;64.70
63317;DHT22;49822;41.468;13.560;2023-02-15T09:19:24;8.60;63.90
63317;DHT22;49822;41.468;13.560;2023-02-15T09:21:51;8.90;62.80
63317;DHT22;49822;41.468;13.560;2023-02-15T09:24:20;9.00;61.30
63317;DHT22;49822;41.468;13.560;2023-02-15T09:26:48;8.90;61.70
63317;DHT22;49822;41.468;13.560;2023-02-15T09:29:18;9.20;61.70
63317;DHT22;49822;41.468;13.560;2023-02-15T09:31:48;9.50;60.80
63317;DHT22;49822;41.468;13.560;2023-02-15T09:34:19;9.70;59.70
63317;DHT22;49822;41.468;13.560;2023-02-15T09:36:48;9.70;59.90
63317;DHT22;49822;41.468;13.560;2023-02-15T09:39:24;9.80;59.60
63317;DHT22;49822;41.468;13.560;2023-02-15T09:42:16;10.10;59.60
63317;DHT22;49822;41.468;13.560;2023-02-15T09:48:06;10.50;58.10
63317;DHT22;49822;41.468;13.560;2023-02-15T10:04:47;11.10;56.20
63317;DHT22;49822;41.468;13.560;2023-02-15T10:10:34;11.70;55.50
63317;DHT22;49822;41.468;13.560;2023-02-15T10:19:33;11.90;53.70
63317;DHT22;49822;41.468;13.560;2023-02-15T10:22:11;12.10;54.00
63317;DHT22;49822;41.468;13.560;2023-02-15T10:25:02;12.50;53.30
63317;DHT22;49822;41.468;13.560;2023-02-15T10:27:45;12.70;52.30
63317;DHT22;49822;41.468;13.560;2023-02-15T10:33:03;12.90;51.70
63317;DHT22;49822;41.468;13.560;2023-02-15T10:35:57;13.10;51.10
63317;DHT22;49822;41.468;13.560;2023-02-15T10:39:33;13.30;50.20
63317;DHT22;49822;41.468;13.560;2023-02-15T11:01:07;17.60;40.40
63317;DHT22;49822;41.468;13.560;2023-02-15T11:06:21;17.40;40.20
63317;DHT22;49822;41.468;13.560;2023-02-15T11:09:01;17.40;40.70
63317;DHT22;49822;41.468;13.560;2023-02-15T11:11:34;17.60;40.60
63317;DHT22;49822;41.468;13.560;2023-02-15T11:14:56;17.60;40.90
63317;DHT22;49822;41.468;13.560;2023-02-15T11:17:04;17.60;40.00
63317;DHT22;49822;41.468;13.560;2023-02-15T11:19:39;17.80;40.40
63317;DHT22;49822;41.468;13.560;2023-02-15T11:22:10;17.40;41.40
63317;DHT22;49822;41.468;13.560;2023-02-15T11:24:42;17.00;41.70
63317;DHT22;49822;41.468;13.560;2023-02-15T11:27:24;16.80;42.40
63317;DHT22;49822;41.468;13.560;2023-02-15T11:30:14;16.80;41.90
63317;DHT22;49822;41.468;13.560;2023-02-15T11:32:47;16.70;41.60
63317;DHT22;49822;41.468;13.560;2023-02-15T11:35:26;16.80;41.40
63317;DHT22;49822;41.468;13.560;2023-02-15T11:43:17;16.60;41.20
63317;DHT22;49822;41.468;13.560;2023-02-15T11:45:47;16.70;41.00
63317;DHT22;49822;41.468;13.560;2023-02-15T11:48:17;16.40;42.10
63317;DHT22;49822;41.468;13.560;2023-02-15T11:50:45;16.70;42.40
63317;DHT22;49822;41.468;13.560;2023-02-15T11:53:16;16.90;41.60
63317;DHT22;49822;41.468;13.560;2023-02-15T11:55:47;17.10;40.30
63317;DHT22;49822;41.468;13.560;2023-02-15T11:58:39;17.20;41.10
63317;DHT22;49822;41.468;13.560;2023-02-15T12:01:16;17.50;40.40
63317;DHT22;49822;41.468;13.560;2023-02-15T12:06:51;17.40;40.60
63317;DHT22;49822;41.468;13.560;2023-02-15T12:09:37;17.50;40.80
63317;DHT22;49822;41.468;13.560;2023-02-15T12:12:34;17.50;40.80
63317;DHT22;49822;41.468;13.560;2023-02-15T12:15:08;17.60;40.90
63317;DHT22;49822;41.468;13.560;2023-02-15T12:17:52;17.80;41.00
63317;DHT22;49822;41.468;13.560;2023-02-15T12:20:29;18.10;40.30
63317;DHT22;49822;41.468;13.560;2023-02-15T12:23:03;18.20;40.50
63317;DHT22;49822;41.468;13.560;2023-02-15T12:25:51;18.10;39.60
63317;DHT22;49822;41.468;13.560;2023-02-15T12:28:34;18.10;39.50
63317;DHT22;49822;41.468;13.560;2023-02-15T12:31:35;18.20;39.70
63317;DHT22;49822;41.468;13.560;2023-02-15T12:34:10;18.00;40.00
63317;DHT22;49822;41.468;13.560;2023-02-15T12:36:48;18.00;39.80
63317;DHT22;49822;41.468;13.560;2023-02-15T12:39:28;18.00;40.10
63317;DHT22;49822;41.468;13.560;2023-02-15T12:41:57;18.40;39.40
63317;DHT22;49822;41.468;13.560;2023-02-15T12:44:32;18.20;39.70
63317;DHT22;49822;41.468;13.560;2023-02-15T12:47:05;18.20;39.90
63317;DHT22;49822;41.468;13.560;2023-02-15T12:49:37;18.00;40.50
63317;DHT22;49822;41.468;13.560;2023-02-15T12:52:23;18.30;39.80
63317;DHT22;49822;41.468;13.560;2023-02-15T12:54:52;18.40;38.70
63317;DHT22;49822;41.468;13.560;2023-02-15T12:57:31;18.10;39.30
63317;DHT22;49822;41.468;13.560;2023-02-15T13:00:00;18.00;39.60
63317;DHT22;49822;41.468;13.560;2023-02-15T13:07:50;18.10;36.90
63317;DHT22;49822;41.468;13.560;2023-02-15T13:10:40;18.10;38.20
63317;DHT22;49822;41.468;13.560;2023-02-15T13:13:19;18.50;35.40
63317;DHT22;49822;41.468;13.560;2023-02-15T13:15:51;18.80;34.70
63317;DHT22;49822;41.468;13.560;2023-02-15T13:18:42;18.90;33.50
63317;DHT22;49822;41.468;13.560;2023-02-15T13:21:20;19.10;34.60
63317;DHT22;49822;41.468;13.560;2023-02-15T13:23:53;19.10;36.70
63317;DHT22;49822;41.468;13.560;2023-02-15T13:26:26;19.30;36.40
63317;DHT22;49822;41.468;13.560;2023-02-15T13:29:00;19.10;36.60
63317;DHT22;49822;41.468;13.560;2023-02-15T13:31:30;19.10;37.40
63317;DHT22;49822;41.468;13.560;2023-02-15T13:34:25;19.20;36.70
63317;DHT22;49822;41.468;13.560;2023-02-15T13:37:41;19.40;36.10
63317;DHT22;49822;41.468;13.560;2023-02-15T13:40:13;19.10;37.30
63317;DHT22;49822;41.468;13.560;2023-02-15T13:42:54;19.30;38.20
63317;DHT22;49822;41.468;13.560;2023-02-15T13:51:09;19.50;37.00
63317;DHT22;49822;41.468;13.560;2023-02-15T13:56:58;19.60;36.80
63317;DHT22;49822;41.468;13.560;2023-02-15T14:04:48;19.70;37.90
63317;DHT22;49822;41.468;13.560;2023-02-15T14:10:31;19.50;39.00
63317;DHT22;49822;41.468;13.560;2023-02-15T14:19:09;19.90;37.10
63317;DHT22;49822;41.468;13.560;2023-02-15T14:30:25;20.30;35.90
63317;DHT22;49822;41.468;13.560;2023-02-15T14:35:52;20.30;35.20
63317;DHT22;49822;41.468;13.560;2023-02-15T14:38:59;20.20;35.80
63317;DHT22;49822;41.468;13.560;2023-02-15T14:41:51;20.60;35.80
63317;DHT22;49822;41.468;13.560;2023-02-15T14:44:42;20.90;35.50
63317;DHT22;49822;41.468;13.560;2023-02-15T14:47:22;21.00;34.70
63317;DHT22;49822;41.468;13.560;2023-02-15T14:49:52;20.90;35.80
63317;DHT22;49822;41.468;13.560;2023-02-15T14:52:19;21.10;34.50
63317;DHT22;49822;41.468;13.560;2023-02-15T14:59:56;20.50;34.90
63317;DHT22;49822;41.468;13.560;2023-02-15T15:02:28;20.60;35.10
63317;DHT22;49822;41.468;13.560;2023-02-15T15:05:10;21.20;34.20
63317;DHT22;49822;41.468;13.560;2023-02-15T15:07:47;21.70;33.00
63317;DHT22;49822;41.468;13.560;2023-02-15T15:12:54;22.30;34.20
63317;DHT22;49822;41.468;13.560;2023-02-15T15:18:01;21.10;37.00
63317;DHT22;49822;41.468;13.560;2023-02-15T15:20:40;20.90;37.00
63317;DHT22;49822;41.468;13.560;2023-02-15T15:31:45;21.70;35.70
63317;DHT22;49822;41.468;13.560;2023-02-15T15:43:49;17.20;44.80
63317;DHT22;49822;41.468;13.560;2023-02-15T15:48:54;15.40;50.50
63317;DHT22;49822;41.468;13.560;2023-02-15T15:51:30;15.30;51.50
63317;DHT22;49822;41.468;13.560;2023-02-15T15:54:02;15.00;53.20
63317;DHT22;49822;41.468;13.560;2023-02-15T15:56:35;14.80;54.90
63317;DHT22;49822;41.468;13.560;2023-02-15T15:59:07;14.60;56.20
63317;DHT22;49822;41.468;13.560;2023-02-15T16:01:43;14.60;57.40
63317;DHT22;49822;41.468;13.560;2023-02-15T16:04:14;14.70;57.70
63317;DHT22;49822;41.468;13.560;2023-02-15T16:06:49;15.00;58.70
63317;DHT22;49822;41.468;13.560;2023-02-15T16:09:22;15.10;58.20
63317;DHT22;49822;41.468;13.560;2023-02-15T16:15:25;15.20;57.90
63317;DHT22;49822;41.468;13.560;2023-02-15T16:17:58;15.30;58.50
63317;DHT22;49822;41.468;13.560;2023-02-15T16:20:30;15.30;58.40
63317;DHT22;49822;41.468;13.560;2023-02-15T16:29:12;15.10;57.30
63317;DHT22;49822;41.468;13.560;2023-02-15T16:31:42;15.00;58.00
63317;DHT22;49822;41.468;13.560;2023-02-15T16:34:16;14.60;60.10
63317;DHT22;49822;41.468;13.560;2023-02-15T16:36:46;14.00;62.10
63317;DHT22;49822;41.468;13.560;2023-02-15T16:39:19;13.90;63.10
63317;DHT22;49822;41.468;13.560;2023-02-15T16:41:48;13.90;63.90
63317;DHT22;49822;41.468;13.560;2023-02-15T16:44:20;13.70;64.00
63317;DHT22;49822;41.468;13.560;2023-02-15T16:46:51;13.60;63.40
63317;DHT22;49822;41.468;13.560;2023-02-15T16:49:26;13.60;63.60
63317;DHT22;49822;41.468;13.560;2023-02-15T16:52:03;13.60;64.00
63317;DHT22;49822;41.468;13.560;2023-02-15T16:54:33;13.60;63.60
63317;DHT22;49822;41.468;13.560;2023-02-15T16:57:03;13.30;61.60
63317;DHT22;49822;41.468;13.560;2023-02-15T16:59:35;13.10;65.00
63317;DHT22;49822;41.468;13.560;2023-02-15T17:02:15;13.10;66.00
63317;DHT22;49822;41.468;13.560;2023-02-15T17:05:15;13.10;67.00
63317;DHT22;49822;41.468;13.560;2023-02-15T17:08:05;12.90;68.00
63317;DHT22;49822;41.468;13.560;2023-02-15T17:10:37;12.80;68.60
63317;DHT22;49822;41.468;13.560;2023-02-15T17:13:14;12.80;68.60
63317;DHT22;49822;41.468;13.560;2023-02-15T17:16:09;12.80;68.20
63317;DHT22;49822;41.468;13.560;2023-02-15T17:18:51;12.80;68.20
63317;DHT22;49822;41.468;13.560;2023-02-15T17:21:25;12.70;68.00
63317;DHT22;49822;41.468;13.560;2023-02-15T17:23:59;12.70;67.70
63317;DHT22;49822;41.468;13.560;2023-02-15T17:26:33;12.60;67.80
63317;DHT22;49822;41.468;13.560;2023-02-15T17:31:47;12.40;69.00
63317;DHT22;49822;41.468;13.560;2023-02-15T17:37:28;12.50;67.70
63317;DHT22;49822;41.468;13.560;2023-02-15T17:39:58;12.20;66.40
63317;DHT22;49822;41.468;13.560;2023-02-15T17:42:27;11.80;65.70
63317;DHT22;49822;41.468;13.560;2023-02-15T17:44:54;11.70;66.70
63317;DHT22;49822;41.468;13.560;2023-02-15T17:47:24;11.80;66.20
63317;DHT22;49822;41.468;13.560;2023-02-15T17:49:55;11.80;65.70
63317;DHT22;49822;41.468;13.560;2023-02-15T17:52:29;11.70;66.40
63317;DHT22;49822;41.468;13.560;2023-02-15T17:55:00;11.70;66.50
63317;DHT22;49822;41.468;13.560;2023-02-15T17:57:51;11.50;67.10
63317;DHT22;49822;41.468;13.560;2023-02-15T18:00:19;11.50;67.70
63317;DHT22;49822;41.468;13.560;2023-02-15T18:03:10;11.50;67.00
63317;DHT22;49822;41.468;13.560;2023-02-15T18:05:57;11.50;67.20
63317;DHT22;49822;41.468;13.560;2023-02-15T18:08:44;11.50;67.10
63317;DHT22;49822;41.468;13.560;2023-02-15T18:11:30;10.60;69.70
63317;DHT22;49822;41.468;13.560;2023-02-15T18:14:09;10.10;71.50
63317;DHT22;49822;41.468;13.560;2023-02-15T18:16:39;10.00;72.10
63317;DHT22;49822;41.468;13.560;2023-02-15T18:19:20;10.10;71.60
63317;DHT22;49822;41.468;13.560;2023-02-15T18:21:48;10.30;70.60
63317;DHT22;49822;41.468;13.560;2023-02-15T18:24:22;10.50;69.40
63317;DHT22;49822;41.468;13.560;2023-02-15T18:26:53;10.60;68.10
63317;DHT22;49822;41.468;13.560;2023-02-15T18:29:20;10.60;67.20
63317;DHT22;49822;41.468;13.560;2023-02-15T18:31:51;9.80;69.50
63317;DHT22;49822;41.468;13.560;2023-02-15T18:34:27;9.70;70.70
63317;DHT22;49822;41.468;13.560;2023-02-15T18:36:57;9.90;70.60
63317;DHT22;49822;41.468;13.560;2023-02-15T18:42:04;9.40;70.80
63317;DHT22;49822;41.468;13.560;2023-02-15T18:44:33;9.30;71.40
63317;DHT22;49822;41.468;13.560;2023-02-15T18:47:00;9.10;72.10
63317;DHT22;49822;41.468;13.560;2023-02-15T18:49:28;9.10;72.00
63317;DHT22;49822;41.468;13.560;2023-02-15T18:51:56;9.00;72.70
63317;DHT22;49822;41.468;13.560;2023-02-15T18:54:24;9.20;71.80
63317;DHT22;49822;41.468;13.560;2023-02-15T18:56:56;9.40;71.80
63317;DHT22;49822;41.468;13.560;2023-02-15T18:59:26;9.50;71.40
63317;DHT22;49822;41.468;13.560;2023-02-15T19:01:55;9.50;70.00